createdAt,value
2018-12-02T00:09:10.185Z,97273.41
2018-12-02T00:19:29.268Z,97276.91
2018-12-02T00:29:48.645Z,97281.52
2018-12-02T00:40:12.187Z,97288.26
2018-12-02T00:50:32.365Z,97282.63
2018-12-02T01:00:52.235Z,97271.02
2018-12-02T01:11:10.930Z,97266.45
2018-12-02T01:21:31.301Z,97262.95
2018-12-02T01:31:51.302Z,97260.75
2018-12-02T01:42:10.658Z,97259.33
2018-12-02T01:52:30.091Z,97252.48
2018-12-02T02:02:49.735Z,97235.27
2018-12-02T02:13:08.834Z,97244.64
2018-12-02T02:23:28.332Z,97221.11
2018-12-02T02:33:47.844Z,97208.79
2018-12-02T02:44:08.126Z,97182.97
2018-12-02T02:54:26.899Z,97188.44
2018-12-02T03:04:46.106Z,97188.44
2018-12-02T03:15:07.775Z,97178.85
2018-12-02T03:25:27.567Z,97164.08
2018-12-02T03:35:47.604Z,97158.06
2018-12-02T03:46:07.382Z,97128.41
2018-12-02T03:56:28.109Z,97104.20
2018-12-02T04:06:46.938Z,97120.37
2018-12-02T04:17:06.207Z,97110.39
2018-12-02T04:27:25.513Z,97110.39
2018-12-02T04:37:45.075Z,97137.83
2018-12-02T04:48:04.899Z,97127.73
2018-12-02T04:58:24.187Z,97092.14
2018-12-02T05:08:43.364Z,97073.25
2018-12-02T05:19:02.851Z,97066.31
2018-12-02T05:29:22.435Z,97073.28
2018-12-02T05:39:41.727Z,97073.28
2018-12-02T05:50:01.121Z,97068.27
2018-12-02T06:00:21.416Z,97068.27
2018-12-02T06:10:42.438Z,97057.55
2018-12-02T06:21:01.863Z,97066.11
2018-12-02T06:31:20.687Z,97038.13
2018-12-02T06:41:40.724Z,97044.16
2018-12-02T06:52:00.802Z,97032.22
2018-12-02T07:02:37.291Z,97031.69
2018-12-02T07:12:57.169Z,97031.84
2018-12-02T07:23:16.424Z,97031.84
2018-12-02T07:33:36.330Z,97006.92
2018-12-02T07:44:08.166Z,97014.98
2018-12-02T07:54:27.995Z,97011.42
2018-12-02T08:04:47.394Z,97011.42
2018-12-02T08:15:11.295Z,97006.45
2018-12-02T08:25:30.904Z,97006.45
2018-12-02T08:35:50.472Z,97006.08
2018-12-02T08:46:09.783Z,97031.66
2018-12-02T08:56:30.178Z,97005.73
2018-12-02T09:06:50.174Z,96995.81
2018-12-02T09:17:10.128Z,97008.31
2018-12-02T09:27:29.500Z,96991.08
2018-12-02T09:37:48.589Z,96973.83
2018-12-02T09:48:08.196Z,96963.34
2018-12-02T09:58:29.964Z,96950.42
2018-12-02T10:08:50.377Z,96934.52
2018-12-02T10:19:10.041Z,96932.36
2018-12-02T10:29:30.542Z,96906.76
2018-12-02T10:39:51.377Z,96898.41
2018-12-02T10:50:18.540Z,96875.20
2018-12-02T11:00:55.757Z,96853.37
2018-12-02T11:11:17.282Z,96796.08
2018-12-02T11:21:36.881Z,96797.81
2018-12-02T11:31:56.917Z,96794.78
2018-12-02T11:42:16.429Z,96806.24
2018-12-02T11:52:36.084Z,96794.96
2018-12-02T12:02:56.845Z,96776.42
2018-12-02T12:13:18.147Z,96736.17
2018-12-02T12:23:38.043Z,96706.58
2018-12-02T12:33:58.090Z,96676.65
2018-12-02T12:44:18.420Z,96656.53
2018-12-02T12:54:38.589Z,96651.66
2018-12-02T13:04:58.246Z,96688.24
2018-12-02T13:15:19.703Z,96724.70
2018-12-02T13:25:39.665Z,96778.47
2018-12-02T13:35:59.490Z,96809.78
2018-12-02T13:46:19.441Z,96809.78
2018-12-02T13:56:40.165Z,96745.45
2018-12-02T14:06:59.211Z,96745.45
2018-12-02T14:17:22.621Z,96708.58
2018-12-02T14:27:44.773Z,96667.97
2018-12-02T14:38:04.201Z,96667.97
2018-12-02T14:48:23.642Z,96687.34
2018-12-02T14:58:43.933Z,96753.02
2018-12-02T15:09:08.456Z,96757.84
2018-12-02T15:19:29.549Z,96731.45
2018-12-02T15:29:49.993Z,96731.45
2018-12-02T15:40:13.991Z,96744.32
2018-12-02T15:50:36.793Z,96781.12
2018-12-02T16:00:59.799Z,96750.81
2018-12-02T16:11:21.184Z,96750.81
2018-12-02T16:21:41.687Z,96741.16
2018-12-02T16:32:03.970Z,96737.11
2018-12-02T16:42:25.015Z,96720.95
2018-12-02T16:52:48.113Z,96720.95
2018-12-02T17:03:08.963Z,96720.70
2018-12-02T17:13:29.864Z,96707.52
2018-12-02T17:23:55.944Z,96691.63
2018-12-02T17:34:20.190Z,96691.63
2018-12-02T17:44:39.860Z,96695.08
2018-12-02T17:55:00.444Z,96686.22
2018-12-02T18:05:39.150Z,96676.54
2018-12-02T18:16:02.965Z,96666.80
2018-12-02T18:26:24.115Z,96669.71
2018-12-02T18:36:44.913Z,96673.73
2018-12-02T18:47:06.640Z,96676.13
2018-12-02T18:57:31.015Z,96680.13
2018-12-02T19:07:51.027Z,96686.59
2018-12-02T19:18:15.113Z,96677.92
2018-12-02T19:28:36.191Z,96682.23
2018-12-02T19:38:58.675Z,96698.33
2018-12-02T19:49:19.782Z,96689.42
2018-12-02T19:59:43.671Z,96689.08
2018-12-02T20:10:05.761Z,96696.06
2018-12-02T20:20:53.486Z,96691.94
2018-12-02T20:31:20.766Z,96682.50
2018-12-02T20:41:43.833Z,96670.87
2018-12-02T20:52:05.563Z,96658.42
2018-12-02T21:02:28.725Z,96662.67
2018-12-02T21:12:50.428Z,96651.55
2018-12-02T21:23:11.240Z,96644.21
2018-12-02T21:33:31.248Z,96638.55
2018-12-02T21:43:51.382Z,96631.57
2018-12-02T21:54:10.957Z,96621.81
2018-12-02T22:04:31.311Z,96628.06
2018-12-02T22:14:53.558Z,96620.62
2018-12-02T22:25:14.277Z,96622.90
2018-12-02T22:35:34.097Z,96614.17
2018-12-02T22:45:54.656Z,96607.20
2018-12-02T22:56:14.042Z,96605.58
2018-12-02T23:06:33.265Z,96606.81
2018-12-02T23:17:21.043Z,96603.60
2018-12-02T23:27:40.223Z,96610.27
2018-12-02T23:37:59.449Z,96612.73
2018-12-02T23:48:19.611Z,96615.42
2018-12-02T23:58:39.971Z,96602.95
